sensor_id;sensor_type;location;lat;lon;timestamp;temperature;humidity
7455;HTU21D;3769;51.208;4.454;2023-04-15T00:03:54;10.3;92.7
7455;HTU21D;3769;51.208;4.454;2023-04-15T00:08:54;10.3;91.8
7455;HTU21D;3769;51.208;4.454;2023-04-15T00:13:54;10.2;90.5
7455;HTU21D;3769;51.208;4.454;2023-04-15T00:18:54;10.3;92.3
7455;HTU21D;3769;51.208;4.454;2023-04-15T00:23:54;10.2;97.2
7455;HTU21D;3769;51.208;4.454;2023-04-15T00:28:54;10.4;93.2
7455;HTU21D;3769;51.208;4.454;2023-04-15T00:33:54;10.3;96.8
7455;HTU21D;3769;51.208;4.454;2023-04-15T00:38:54;10.5;93
7455;HTU21D;3769;51.208;4.454;2023-04-15T00:43:54;10.3;95.2
7455;HTU21D;3769;51.208;4.454;2023-04-15T00:48:54;10.4;92.2
7455;HTU21D;3769;51.208;4.454;2023-04-15T00:53:54;10.4;95.9
7455;HTU21D;3769;51.208;4.454;2023-04-15T00:58:55;10.3;97.8
7455;HTU21D;3769;51.208;4.454;2023-04-15T01:03:55;10.4;97.8
7455;HTU21D;3769;51.208;4.454;2023-04-15T01:08:54;10.3;97.6
7455;HTU21D;3769;51.208;4.454;2023-04-15T01:13:55;10.3;97.8
7455;HTU21D;3769;51.208;4.454;2023-04-15T01:18:54;10.3;97.8
7455;HTU21D;3769;51.208;4.454;2023-04-15T01:23:54;10.3;97.8
7455;HTU21D;3769;51.208;4.454;2023-04-15T01:28:54;10.2;97.8
7455;HTU21D;3769;51.208;4.454;2023-04-15T01:33:54;10.2;97.8
7455;HTU21D;3769;51.208;4.454;2023-04-15T01:38:55;10.3;94
7455;HTU21D;3769;51.208;4.454;2023-04-15T01:43:54;10.3;95.1
7455;HTU21D;3769;51.208;4.454;2023-04-15T01:48:54;10;97.8
7455;HTU21D;3769;51.208;4.454;2023-04-15T01:53:54;10.1;97.8
7455;HTU21D;3769;51.208;4.454;2023-04-15T01:58:54;10.1;97.8
7455;HTU21D;3769;51.208;4.454;2023-04-15T02:03:54;10.3;97.8
7455;HTU21D;3769;51.208;4.454;2023-04-15T02:08:54;10.6;94.2
7455;HTU21D;3769;51.208;4.454;2023-04-15T02:13:54;11.1;87.5
7455;HTU21D;3769;51.208;4.454;2023-04-15T02:18:54;11.6;82.3
7455;HTU21D;3769;51.208;4.454;2023-04-15T02:23:55;11.3;85.5
7455;HTU21D;3769;51.208;4.454;2023-04-15T02:28:55;11.4;84.5
7455;HTU21D;3769;51.208;4.454;2023-04-15T02:33:54;11.2;82.2
7455;HTU21D;3769;51.208;4.454;2023-04-15T02:38:54;11;82.4
7455;HTU21D;3769;51.208;4.454;2023-04-15T02:43:54;11.1;80.8
7455;HTU21D;3769;51.208;4.454;2023-04-15T02:48:54;10.6;88.9
7455;HTU21D;3769;51.208;4.454;2023-04-15T02:53:54;10.2;97.8
7455;HTU21D;3769;51.208;4.454;2023-04-15T02:58:54;10.1;97.8
7455;HTU21D;3769;51.208;4.454;2023-04-15T03:03:54;10.3;97.8
7455;HTU21D;3769;51.208;4.454;2023-04-15T03:08:54;9.9;97.7
7455;HTU21D;3769;51.208;4.454;2023-04-15T03:13:54;10.1;97.8
7455;HTU21D;3769;51.208;4.454;2023-04-15T03:18:54;10.4;97.8
7455;HTU21D;3769;51.208;4.454;2023-04-15T03:23:54;10.4;97.8
7455;HTU21D;3769;51.208;4.454;2023-04-15T03:28:55;10;97.7
7455;HTU21D;3769;51.208;4.454;2023-04-15T03:33:54;10;97.8
7455;HTU21D;3769;51.208;4.454;2023-04-15T03:38:54;10.5;97.8
7455;HTU21D;3769;51.208;4.454;2023-04-15T03:43:54;11;97.5
7455;HTU21D;3769;51.208;4.454;2023-04-15T03:48:54;11.4;98
7455;HTU21D;3769;51.208;4.454;2023-04-15T03:53:54;10.8;97.9
7455;HTU21D;3769;51.208;4.454;2023-04-15T03:58:54;10.3;97.8
7455;HTU21D;3769;51.208;4.454;2023-04-15T04:03:54;10;97.7
7455;HTU21D;3769;51.208;4.454;2023-04-15T04:08:54;9.9;97.7
7455;HTU21D;3769;51.208;4.454;2023-04-15T04:13:54;9.6;97.7
7455;HTU21D;3769;51.208;4.454;2023-04-15T04:18:54;9.7;97.7
7455;HTU21D;3769;51.208;4.454;2023-04-15T04:23:54;9.8;97.7
7455;HTU21D;3769;51.208;4.454;2023-04-15T04:28:54;9.7;97.7
7455;HTU21D;3769;51.208;4.454;2023-04-15T04:33:54;9.5;97.7
7455;HTU21D;3769;51.208;4.454;2023-04-15T04:38:54;9.5;97.7
7455;HTU21D;3769;51.208;4.454;2023-04-15T04:43:54;9.4;97.7
7455;HTU21D;3769;51.208;4.454;2023-04-15T04:48:54;9.5;97.7
7455;HTU21D;3769;51.208;4.454;2023-04-15T04:53:55;9.3;97.6
7455;HTU21D;3769;51.208;4.454;2023-04-15T04:58:54;9.4;97.7
7455;HTU21D;3769;51.208;4.454;2023-04-15T05:03:54;9.5;97.7
7455;HTU21D;3769;51.208;4.454;2023-04-15T05:08:54;9.5;97.7
7455;HTU21D;3769;51.208;4.454;2023-04-15T05:13:54;9.4;97.7
7455;HTU21D;3769;51.208;4.454;2023-04-15T05:18:54;9.6;97.7
7455;HTU21D;3769;51.208;4.454;2023-04-15T05:23:54;9.7;97.7
7455;HTU21D;3769;51.208;4.454;2023-04-15T05:28:55;9.6;97.7
7455;HTU21D;3769;51.208;4.454;2023-04-15T05:33:54;9.6;97.7
7455;HTU21D;3769;51.208;4.454;2023-04-15T05:38:54;9.5;97.7
7455;HTU21D;3769;51.208;4.454;2023-04-15T05:43:54;9.8;97.7
7455;HTU21D;3769;51.208;4.454;2023-04-15T05:48:54;9.5;97.7
7455;HTU21D;3769;51.208;4.454;2023-04-15T05:53:54;9.5;97.7
7455;HTU21D;3769;51.208;4.454;2023-04-15T05:58:55;9.6;97.7
7455;HTU21D;3769;51.208;4.454;2023-04-15T06:03:54;9.5;97.7
7455;HTU21D;3769;51.208;4.454;2023-04-15T06:08:54;9.7;97.7
7455;HTU21D;3769;51.208;4.454;2023-04-15T06:13:55;9.7;97.7
7455;HTU21D;3769;51.208;4.454;2023-04-15T06:18:54;9.8;97.7
7455;HTU21D;3769;51.208;4.454;2023-04-15T06:23:54;9.6;97.7
7455;HTU21D;3769;51.208;4.454;2023-04-15T06:28:54;9.7;97.7
7455;HTU21D;3769;51.208;4.454;2023-04-15T06:33:55;9.8;97.7
7455;HTU21D;3769;51.208;4.454;2023-04-15T06:38:54;9.8;97.7
7455;HTU21D;3769;51.208;4.454;2023-04-15T06:43:54;9.9;97.7
7455;HTU21D;3769;51.208;4.454;2023-04-15T06:48:55;9.8;97.7
7455;HTU21D;3769;51.208;4.454;2023-04-15T06:53:54;10;97.7
7455;HTU21D;3769;51.208;4.454;2023-04-15T06:58:54;10.1;97.8
7455;HTU21D;3769;51.208;4.454;2023-04-15T07:03:54;10.1;97.8
7455;HTU21D;3769;51.208;4.454;2023-04-15T07:08:54;10;97.7
7455;HTU21D;3769;51.208;4.454;2023-04-15T07:13:56;10.1;97.8
7455;HTU21D;3769;51.208;4.454;2023-04-15T07:18:54;10.2;97.8
7455;HTU21D;3769;51.208;4.454;2023-04-15T07:23:54;10.3;97.8
7455;HTU21D;3769;51.208;4.454;2023-04-15T07:28:54;10.4;97.8
7455;HTU21D;3769;51.208;4.454;2023-04-15T07:33:54;10.5;97.8
7455;HTU21D;3769;51.208;4.454;2023-04-15T07:38:55;10.7;94.7
7455;HTU21D;3769;51.208;4.454;2023-04-15T07:43:54;10.8;93.3
7455;HTU21D;3769;51.208;4.454;2023-04-15T07:48:54;10.9;93.5
7455;HTU21D;3769;51.208;4.454;2023-04-15T07:53:54;10.9;89.4
7455;HTU21D;3769;51.208;4.454;2023-04-15T07:58:55;11;91.1
7455;HTU21D;3769;51.208;4.454;2023-04-15T08:03:55;11.1;88.5
7455;HTU21D;3769;51.208;4.454;2023-04-15T08:08:54;11.2;88.2
7455;HTU21D;3769;51.208;4.454;2023-04-15T08:13:54;11.3;88.4
7455;HTU21D;3769;51.208;4.454;2023-04-15T08:18:55;11.5;85.4
7455;HTU21D;3769;51.208;4.454;2023-04-15T08:23:55;11.6;85.9
7455;HTU21D;3769;51.208;4.454;2023-04-15T08:28:54;11.7;86.6
7455;HTU21D;3769;51.208;4.454;2023-04-15T08:33:55;11.9;83.4
7455;HTU21D;3769;51.208;4.454;2023-04-15T08:38:54;11.9;80
7455;HTU21D;3769;51.208;4.454;2023-04-15T08:43:56;11.9;81.5
7455;HTU21D;3769;51.208;4.454;2023-04-15T08:48:55;12;83
7455;HTU21D;3769;51.208;4.454;2023-04-15T08:53:54;12.1;81.2
7455;HTU21D;3769;51.208;4.454;2023-04-15T08:58:54;12.2;83.4
7455;HTU21D;3769;51.208;4.454;2023-04-15T09:03:55;12.3;86.2
7455;HTU21D;3769;51.208;4.454;2023-04-15T09:08:54;12.3;83.5
7455;HTU21D;3769;51.208;4.454;2023-04-15T09:13:55;12.3;80.7
7455;HTU21D;3769;51.208;4.454;2023-04-15T09:18:55;12.6;80.6
7455;HTU21D;3769;51.208;4.454;2023-04-15T09:23:56;12.6;77.1
7455;HTU21D;3769;51.208;4.454;2023-04-15T09:28:57;12.8;76.6
7455;HTU21D;3769;51.208;4.454;2023-04-15T09:33:55;12.7;77.8
7455;HTU21D;3769;51.208;4.454;2023-04-15T09:38:55;12.6;75.5
7455;HTU21D;3769;51.208;4.454;2023-04-15T09:43:54;12.9;72.6
7455;HTU21D;3769;51.208;4.454;2023-04-15T09:49:10;13;73.6
7455;HTU21D;3769;51.208;4.454;2023-04-15T09:53:54;12.9;68.3
7455;HTU21D;3769;51.208;4.454;2023-04-15T09:58:55;12.9;71.8
7455;HTU21D;3769;51.208;4.454;2023-04-15T10:03:55;12.9;72.7
7455;HTU21D;3769;51.208;4.454;2023-04-15T10:08:56;12.9;61.6
7455;HTU21D;3769;51.208;4.454;2023-04-15T10:13:55;13;66.1
7455;HTU21D;3769;51.208;4.454;2023-04-15T10:18:55;13.2;65.4
7455;HTU21D;3769;51.208;4.454;2023-04-15T10:23:54;13.2;63.7
7455;HTU21D;3769;51.208;4.454;2023-04-15T10:28:55;13;64.3
7455;HTU21D;3769;51.208;4.454;2023-04-15T10:33:54;13.3;63.8
7455;HTU21D;3769;51.208;4.454;2023-04-15T10:38:54;13.4;61.7
7455;HTU21D;3769;51.208;4.454;2023-04-15T10:43:55;13.3;54.7
7455;HTU21D;3769;51.208;4.454;2023-04-15T10:48:55;13.5;62.2
7455;HTU21D;3769;51.208;4.454;2023-04-15T10:53:55;13.6;62.7
7455;HTU21D;3769;51.208;4.454;2023-04-15T10:58:54;13.8;60.2
7455;HTU21D;3769;51.208;4.454;2023-04-15T11:03:55;13.7;58.3
7455;HTU21D;3769;51.208;4.454;2023-04-15T11:08:56;13.5;58.1
7455;HTU21D;3769;51.208;4.454;2023-04-15T11:13:54;13.7;59.5
7455;HTU21D;3769;51.208;4.454;2023-04-15T11:18:55;14;57.4
7455;HTU21D;3769;51.208;4.454;2023-04-15T11:23:54;14.1;57.4
7455;HTU21D;3769;51.208;4.454;2023-04-15T11:28:55;13.8;54.1
7455;HTU21D;3769;51.208;4.454;2023-04-15T11:33:56;13.8;58.9
7455;HTU21D;3769;51.208;4.454;2023-04-15T11:38:56;13.9;57.7
7455;HTU21D;3769;51.208;4.454;2023-04-15T11:43:54;14;55.6
7455;HTU21D;3769;51.208;4.454;2023-04-15T11:48:55;14.1;55.1
7455;HTU21D;3769;51.208;4.454;2023-04-15T11:53:54;14.2;53.3
7455;HTU21D;3769;51.208;4.454;2023-04-15T11:58:56;14.4;55.1
7455;HTU21D;3769;51.208;4.454;2023-04-15T12:03:55;14.6;56.5
7455;HTU21D;3769;51.208;4.454;2023-04-15T12:09:08;14.7;55
7455;HTU21D;3769;51.208;4.454;2023-04-15T12:13:56;14.7;54
7455;HTU21D;3769;51.208;4.454;2023-04-15T12:18:55;14.7;48.6
7455;HTU21D;3769;51.208;4.454;2023-04-15T12:23:55;14.8;52.8
7455;HTU21D;3769;51.208;4.454;2023-04-15T12:28:55;15;53.2
7455;HTU21D;3769;51.208;4.454;2023-04-15T12:33:55;15.2;51.6
7455;HTU21D;3769;51.208;4.454;2023-04-15T12:38:55;15.8;53.9
7455;HTU21D;3769;51.208;4.454;2023-04-15T12:43:54;19.6;44.5
7455;HTU21D;3769;51.208;4.454;2023-04-15T12:48:55;21.8;30.1
7455;HTU21D;3769;51.208;4.454;2023-04-15T12:53:55;23.7;27.7
7455;HTU21D;3769;51.208;4.454;2023-04-15T12:58:55;25.3;25.6
7455;HTU21D;3769;51.208;4.454;2023-04-15T13:03:55;24.8;26.7
7455;HTU21D;3769;51.208;4.454;2023-04-15T13:08:55;26.4;25.3
7455;HTU21D;3769;51.208;4.454;2023-04-15T13:13:55;26.3;24.2
7455;HTU21D;3769;51.208;4.454;2023-04-15T13:18:55;25.2;25.9
7455;HTU21D;3769;51.208;4.454;2023-04-15T13:23:55;25;24.8
7455;HTU21D;3769;51.208;4.454;2023-04-15T13:28:55;21.9;26.9
7455;HTU21D;3769;51.208;4.454;2023-04-15T13:33:55;20.4;33.8
7455;HTU21D;3769;51.208;4.454;2023-04-15T13:38:54;22.1;30.6
7455;HTU21D;3769;51.208;4.454;2023-04-15T13:43:55;24.9;30
7455;HTU21D;3769;51.208;4.454;2023-04-15T13:48:55;25.5;27.6
7455;HTU21D;3769;51.208;4.454;2023-04-15T13:53:55;24.8;25.6
7455;HTU21D;3769;51.208;4.454;2023-04-15T13:58:55;22.6;33.8
7455;HTU21D;3769;51.208;4.454;2023-04-15T14:03:55;22.2;30.1
7455;HTU21D;3769;51.208;4.454;2023-04-15T14:08:55;19;41.3
7455;HTU21D;3769;51.208;4.454;2023-04-15T14:13:55;18.9;42.7
7455;HTU21D;3769;51.208;4.454;2023-04-15T14:18:55;17;45.4
7455;HTU21D;3769;51.208;4.454;2023-04-15T14:23:54;17.6;47.8
7455;HTU21D;3769;51.208;4.454;2023-04-15T14:28:55;18.1;45.8
7455;HTU21D;3769;51.208;4.454;2023-04-15T14:33:55;18.9;45.6
7455;HTU21D;3769;51.208;4.454;2023-04-15T14:38:55;19.7;40.5
7455;HTU21D;3769;51.208;4.454;2023-04-15T14:43:55;19.1;38.1
7455;HTU21D;3769;51.208;4.454;2023-04-15T14:48:55;17.8;44
7455;HTU21D;3769;51.208;4.454;2023-04-15T14:53:55;17.4;42.2
7455;HTU21D;3769;51.208;4.454;2023-04-15T14:58:55;17.3;45.2
7455;HTU21D;3769;51.208;4.454;2023-04-15T15:03:55;17.2;45.3
7455;HTU21D;3769;51.208;4.454;2023-04-15T15:08:55;16.3;50.2
7455;HTU21D;3769;51.208;4.454;2023-04-15T15:13:55;16.6;48
7455;HTU21D;3769;51.208;4.454;2023-04-15T15:18:55;16.3;48.7
7455;HTU21D;3769;51.208;4.454;2023-04-15T15:23:55;16.3;48.2
7455;HTU21D;3769;51.208;4.454;2023-04-15T15:28:55;16.1;48.4
7455;HTU21D;3769;51.208;4.454;2023-04-15T15:33:55;15.4;50.5
7455;HTU21D;3769;51.208;4.454;2023-04-15T15:38:55;15.5;52.7
7455;HTU21D;3769;51.208;4.454;2023-04-15T15:43:55;15.7;54.1
7455;HTU21D;3769;51.208;4.454;2023-04-15T15:48:55;15.4;50.7
7455;HTU21D;3769;51.208;4.454;2023-04-15T15:53:55;15.4;53.3
7455;HTU21D;3769;51.208;4.454;2023-04-15T15:58:55;15.7;51.8
7455;HTU21D;3769;51.208;4.454;2023-04-15T16:03:55;15.5;56.7
7455;HTU21D;3769;51.208;4.454;2023-04-15T16:08:55;15.6;55.2
7455;HTU21D;3769;51.208;4.454;2023-04-15T16:13:55;15.2;54
7455;HTU21D;3769;51.208;4.454;2023-04-15T16:18:56;15;54.7
7455;HTU21D;3769;51.208;4.454;2023-04-15T16:23:55;14.6;56.3
7455;HTU21D;3769;51.208;4.454;2023-04-15T16:28:55;14.3;58
7455;HTU21D;3769;51.208;4.454;2023-04-15T16:33:55;14.1;61.6
7455;HTU21D;3769;51.208;4.454;2023-04-15T16:38:55;14.1;62.8
7455;HTU21D;3769;51.208;4.454;2023-04-15T16:43:55;14.1;62.2
7455;HTU21D;3769;51.208;4.454;2023-04-15T16:48:55;14.3;64.1
7455;HTU21D;3769;51.208;4.454;2023-04-15T16:53:55;14.3;64.4
7455;HTU21D;3769;51.208;4.454;2023-04-15T16:58:55;14.4;64.9
7455;HTU21D;3769;51.208;4.454;2023-04-15T17:03:55;14.3;66.9
7455;HTU21D;3769;51.208;4.454;2023-04-15T17:08:55;14.3;68.5
7455;HTU21D;3769;51.208;4.454;2023-04-15T17:13:55;14.4;68.6
7455;HTU21D;3769;51.208;4.454;2023-04-15T17:18:55;14.3;69.4
7455;HTU21D;3769;51.208;4.454;2023-04-15T17:23:55;14.1;71.3
7455;HTU21D;3769;51.208;4.454;2023-04-15T17:28:55;13.8;73.6
7455;HTU21D;3769;51.208;4.454;2023-04-15T17:33:55;13.8;74.5
7455;HTU21D;3769;51.208;4.454;2023-04-15T17:38:55;13.4;76.7
7455;HTU21D;3769;51.208;4.454;2023-04-15T17:43:55;13.1;76.9
7455;HTU21D;3769;51.208;4.454;2023-04-15T17:48:55;13;76.2
7455;HTU21D;3769;51.208;4.454;2023-04-15T17:53:55;12.8;80
7455;HTU21D;3769;51.208;4.454;2023-04-15T17:58:55;12.6;78.2
7455;HTU21D;3769;51.208;4.454;2023-04-15T18:03:55;12.5;79.8
7455;HTU21D;3769;51.208;4.454;2023-04-15T18:08:55;12.4;82
7455;HTU21D;3769;51.208;4.454;2023-04-15T18:13:55;12.3;81.1
7455;HTU21D;3769;51.208;4.454;2023-04-15T18:18:55;12.1;83.4
7455;HTU21D;3769;51.208;4.454;2023-04-15T18:23:55;12.1;82.8
7455;HTU21D;3769;51.208;4.454;2023-04-15T18:28:55;12;83
7455;HTU21D;3769;51.208;4.454;2023-04-15T18:33:55;12;84.9
7455;HTU21D;3769;51.208;4.454;2023-04-15T18:38:55;11.7;89
7455;HTU21D;3769;51.208;4.454;2023-04-15T18:43:55;11.7;91
7455;HTU21D;3769;51.208;4.454;2023-04-15T18:48:55;11.6;93
7455;HTU21D;3769;51.208;4.454;2023-04-15T18:53:55;11.5;94.9
7455;HTU21D;3769;51.208;4.454;2023-04-15T18:58:55;11.2;97.9
7455;HTU21D;3769;51.208;4.454;2023-04-15T19:03:55;11;97.9
7455;HTU21D;3769;51.208;4.454;2023-04-15T19:08:55;11;97.9
7455;HTU21D;3769;51.208;4.454;2023-04-15T19:13:55;10.7;97.9
7455;HTU21D;3769;51.208;4.454;2023-04-15T19:18:55;10.5;97.8
7455;HTU21D;3769;51.208;4.454;2023-04-15T19:23:55;10.6;97.8
7455;HTU21D;3769;51.208;4.454;2023-04-15T19:28:55;10.5;97.8
7455;HTU21D;3769;51.208;4.454;2023-04-15T19:33:55;10.1;97.8
7455;HTU21D;3769;51.208;4.454;2023-04-15T19:38:55;10.2;97.8
7455;HTU21D;3769;51.208;4.454;2023-04-15T19:43:55;10;97.7
7455;HTU21D;3769;51.208;4.454;2023-04-15T19:48:55;9.9;97.7
7455;HTU21D;3769;51.208;4.454;2023-04-15T19:53:55;9.7;97.7
7455;HTU21D;3769;51.208;4.454;2023-04-15T19:58:55;9.7;97.7
7455;HTU21D;3769;51.208;4.454;2023-04-15T20:03:55;9.7;97.7
7455;HTU21D;3769;51.208;4.454;2023-04-15T20:08:55;9.9;97.7
7455;HTU21D;3769;51.208;4.454;2023-04-15T20:13:55;9.7;97.7
7455;HTU21D;3769;51.208;4.454;2023-04-15T20:18:55;9.4;97.7
7455;HTU21D;3769;51.208;4.454;2023-04-15T20:23:55;9.3;97.6
7455;HTU21D;3769;51.208;4.454;2023-04-15T20:28:55;9.2;97.6
7455;HTU21D;3769;51.208;4.454;2023-04-15T20:33:55;9.3;97.6
7455;HTU21D;3769;51.208;4.454;2023-04-15T20:38:55;9.3;97.6
7455;HTU21D;3769;51.208;4.454;2023-04-15T20:43:55;9.2;97.6
7455;HTU21D;3769;51.208;4.454;2023-04-15T20:48:55;9.2;97.6
7455;HTU21D;3769;51.208;4.454;2023-04-15T20:53:55;9.3;97.6
7455;HTU21D;3769;51.208;4.454;2023-04-15T20:58:55;9.1;97.6
7455;HTU21D;3769;51.208;4.454;2023-04-15T21:03:55;9.2;97.6
7455;HTU21D;3769;51.208;4.454;2023-04-15T21:08:55;9.1;97.6
7455;HTU21D;3769;51.208;4.454;2023-04-15T21:13:55;9.2;97.6
7455;HTU21D;3769;51.208;4.454;2023-04-15T21:18:55;9.1;97.6
7455;HTU21D;3769;51.208;4.454;2023-04-15T21:23:55;8.9;97.6
7455;HTU21D;3769;51.208;4.454;2023-04-15T21:28:55;8.9;97.6
7455;HTU21D;3769;51.208;4.454;2023-04-15T21:33:55;8.9;97.6
7455;HTU21D;3769;51.208;4.454;2023-04-15T21:38:55;8.8;97.6
7455;HTU21D;3769;51.208;4.454;2023-04-15T21:43:55;8.6;97.5
7455;HTU21D;3769;51.208;4.454;2023-04-15T21:48:55;8.8;97.6
7455;HTU21D;3769;51.208;4.454;2023-04-15T21:53:55;8.9;97.6
7455;HTU21D;3769;51.208;4.454;2023-04-15T21:58:55;9;97.6
7455;HTU21D;3769;51.208;4.454;2023-04-15T22:03:55;8.9;97.6
7455;HTU21D;3769;51.208;4.454;2023-04-15T22:08:55;9;97.6
7455;HTU21D;3769;51.208;4.454;2023-04-15T22:13:55;9;97.6
7455;HTU21D;3769;51.208;4.454;2023-04-15T22:18:55;8.9;97.6
7455;HTU21D;3769;51.208;4.454;2023-04-15T22:23:55;8.9;97.6
7455;HTU21D;3769;51.208;4.454;2023-04-15T22:28:55;8.8;97.6
7455;HTU21D;3769;51.208;4.454;2023-04-15T22:33:55;9;97.6
7455;HTU21D;3769;51.208;4.454;2023-04-15T22:38:55;9;97.6
7455;HTU21D;3769;51.208;4.454;2023-04-15T22:43:55;9;97.6
7455;HTU21D;3769;51.208;4.454;2023-04-15T22:48:55;8.7;97.6
7455;HTU21D;3769;51.208;4.454;2023-04-15T22:53:55;8.8;97.6
7455;HTU21D;3769;51.208;4.454;2023-04-15T22:58:55;8.9;97.6
7455;HTU21D;3769;51.208;4.454;2023-04-15T23:03:55;8.9;97.6
7455;HTU21D;3769;51.208;4.454;2023-04-15T23:08:55;8.9;97.6
7455;HTU21D;3769;51.208;4.454;2023-04-15T23:13:55;8.9;97.6
7455;HTU21D;3769;51.208;4.454;2023-04-15T23:18:55;9;97.6
7455;HTU21D;3769;51.208;4.454;2023-04-15T23:23:55;8.8;97.6
7455;HTU21D;3769;51.208;4.454;2023-04-15T23:28:55;8.9;97.6
7455;HTU21D;3769;51.208;4.454;2023-04-15T23:33:55;9;97.6
7455;HTU21D;3769;51.208;4.454;2023-04-15T23:38:55;9;97.6
7455;HTU21D;3769;51.208;4.454;2023-04-15T23:43:55;9;97.6
7455;HTU21D;3769;51.208;4.454;2023-04-15T23:48:55;9.1;97.6
7455;HTU21D;3769;51.208;4.454;2023-04-15T23:53:55;9;97.6
7455;HTU21D;3769;51.208;4.454;2023-04-15T23:58:55;9.2;97.6
